Danville Regional Airport
KDAN : now visible

Airfield :











YOU CAN JOIN US ON...

 
LOGIN :

Register | Disclaimer

   EN    FR    IT 

 









Legend :    VFR   Marginal VFR   IFR   Intensive IFR   Very Intensive IFR
Visi :
Ceiling :
>= 8 km
>= 3000ft
5 to 8 km
1000 to 3000 ft
1500m to 5 km
500 to 1000 ft
800 to 1500m
200 to 500 ft
< 800m
< 200 ft
Symbols :   Thunderstorms  Fog  Heavy snow  Heavy precipitations  Wind > 20 kt






- Airport Elevation : 571 ft
- IATA code : DAN


KDAN - Danville Regional

CURRENT METAR :
  • 250353Z AUTO 00000KT 8SM CLR 19/18 A2991 RMK AO2 SLP117 T01890183

EXPIRED METARs :
  • 250253Z AUTO 00000KT 10SM CLR 19/18 A2991 RMK AO2 SLP119 60000 T01890183 51016
  • 250153Z AUTO 00000KT 10SM CLR 20/19 A2991 RMK AO2 RAB04E25 SLP117 P0000 T02000189
  • 250053Z AUTO 00000KT 10SM CLR 21/19 A2988 RMK AO2 SLP109 T02060194
  • 242353Z AUTO 00000KT 10SM CLR 22/21 A2986 RMK AO2 SLP102 60127 T02220206 10272 20200 55000

TAF KDAN
Valid from the 25 at 00:00 until the 26 at 00:00 UTC


242320Z 2500/2524 VRB04KT P6SM FEW100
FM250600 00000KT 1 1/2SM BR FEW250
FM250900 00000KT 1/4SM FG BKN250
FM251300 VRB03KT P6SM BKN250
FM251800 23003KT P6SM SCT250
KZDC FIR / North America



MET'MAP, your aeronautical weather chart ! - Copyright ORBIFLY December 2007 - Disclaimer

ORBIFLY MET'MAP TEAM :

Programming & Development : Alexandra Zaïnal
Original concept : Baudouin d'Aumeries
Technical & hardware support : Manuel Goepfert
Assistance : Marc-Olivier Méhu




SOURCES & CREDITS :

   NOAA       Earth
Advisory